Terminal Aerodrome Forecast
Issued by NWS

Home | Current Version | Previous Version | Text Only | Print | Product List | Glossary On
Versions: 1 2 3 4 5 6 7 8 9 10 11 12 13 14 15 16 17 18 19 20
000
FTUS42 KGSP 061734
TAFAND
TAF
KAND 061734Z 0618/0718 05005KT P6SM BKN007 OVC013
      TEMPO 0618/0622 4SM -RA BR OVC007
     FM062200 28003KT P6SM SCT007 BKN013
     FM070300 25004KT 2SM BR BKN007
     FM070600 26003KT 1/2SM FG OVC008
     FM071300 04003KT P6SM SCT010=

USA.gov is the U.S. government's official web portal to all federal, state and local government web resources and services.